Flag for Australia

Past Weather in 32°02'58.7"S, 115°44'41.6"E, Australia — Yesterday and Last 2 Weeks

Currently: 63 °F. Clear. (Weather station: Belmont Perth Airport, Australia). See more current weather

Past Weather in 32°02'58.7"S, 115°44'41.6"E — Graph

°F

32°02'58.7"S, 115°44'41.6"E Temperature Yesterday

Maximum temperature yesterday: 79 °F (at 2:30 pm)
Minimum temperature yesterday: 61 °F (at 4:30 am)
Average temperature yesterday: 68 °F

High & Low Weather Summary for the Past Weeks

 TemperatureHumidityPressure
High99 °F (Nov 27, 1:30 pm)100% (Nov 17, 3:00 am)30.12 "Hg (Nov 17, 3:00 am)
Low48 °F (Nov 23, 5:30 am)10% (Nov 27, 2:00 pm)29.65 "Hg (Nov 21, 11:30 am)
Average70 °F55%29.95 "Hg
* Reported Nov 15 9:00 pm — Nov 30 9:00 pm, 32°02'58.7"S, 115°44'41.6"E. Weather by CustomWeather, © 2021

Note: Actual official high and low records may vary slightly from our data, if they occured in-between our weather recording intervals... More about our weather records

32°02'58.7"S, 115°44'41.6"E Weather History for the Previous 24 Hours

Scroll right to see more
 ConditionsComfort  
Time TempWeatherWind HumidityBarometerVisibility
9:00 pm
Tue, Nov 30
63 °FClear.18 mph64%29.98 "Hg10 mi
8:30 pm64 °FClear.20 mph60%29.98 "Hg10 mi
8:00 pm64 °FClear.15 mph60%29.98 "Hg10 mi
7:30 pm64 °FClear.17 mph64%29.98 "Hg10 mi
7:00 pm66 °FSunny.18 mph56%29.98 "Hg10 mi
6:30 pm68 °FSunny.17 mph53%29.95 "Hg10 mi
6:00 pm68 °FSunny.18 mph53%29.95 "Hg10 mi
5:30 pm70 °FSunny.20 mph46%29.95 "Hg10 mi
4:30 pm72 °FSunny.20 mph47%29.92 "Hg10 mi
4:00 pm72 °FSunny.23 mph44%29.92 "Hg10 mi
3:00 pm73 °FSunny.22 mph41%29.95 "Hg10 mi
2:30 pm73 °FSunny.21 mph41%29.95 "Hg10 mi
2:00 pm75 °FSunny.20 mph36%29.95 "Hg10 mi
1:30 pm77 °FSunny.16 mph34%29.95 "Hg10 mi
1:00 pm75 °FPassing clouds.8 mph34%29.95 "HgN/A
12:30 pm73 °FSunny.10 mph36%29.95 "Hg10 mi
12:00 pm73 °FSunny.10 mph36%29.98 "Hg10 mi
11:30 am72 °FPassing clouds.10 mph38%29.98 "HgN/A
11:00 am72 °FPassing clouds.12 mph38%30.01 "HgN/A
10:30 am68 °FPassing clouds.8 mph43%30.01 "HgN/A
10:00 am68 °FPassing clouds.9 mph43%30.01 "HgN/A
9:30 am68 °FScattered clouds.10 mph46%30.01 "HgN/A
9:00 am64 °FPartly sunny.9 mph52%30.04 "HgN/A
8:30 am66 °FPartly sunny.8 mph49%30.04 "HgN/A
8:00 am64 °FPartly sunny.10 mph52%30.04 "HgN/A
7:30 am63 °FPartly sunny.13 mph56%30.01 "HgN/A
7:00 am61 °FSunny.13 mph59%30.01 "Hg10 mi
6:30 am61 °FPartly sunny.12 mph59%30.01 "HgN/A
6:00 am61 °FOvercast.12 mph59%30.01 "HgN/A
5:30 am61 °FOvercast.14 mph59%30.01 "HgN/A
5:00 am61 °FPassing clouds.12 mph59%29.98 "HgN/A
4:30 am61 °FPassing clouds.13 mph63%29.95 "HgN/A
4:00 am61 °FPassing clouds.12 mph63%29.95 "HgN/A
3:00 am61 °FPassing clouds.14 mph68%29.95 "HgN/A
2:00 am61 °FOvercast.10 mph77%29.92 "HgN/A
1:30 am61 °FPassing clouds.10 mph77%29.92 "HgN/A
1:00 am61 °FPassing clouds.15 mph77%29.92 "HgN/A
12:30 am61 °FPassing clouds.14 mph77%29.95 "HgN/A
12:00 am61 °FPassing clouds.12 mph83%29.92 "HgN/A
11:30 pm
Mon, Nov 29
61 °FPassing clouds.9 mph83%29.95 "HgN/A
11:00 pm63 °FPassing clouds.8 mph77%29.95 "HgN/A
10:30 pm63 °FPassing clouds.8 mph77%29.95 "HgN/A
10:00 pm63 °FPassing clouds.10 mph77%29.95 "HgN/A
Weather by CustomWeather, © 2021

See weather overview